createdAt,value
2019-03-17T00:01:27.396Z,10
2019-03-17T00:11:27.300Z,10
2019-03-17T00:21:27.197Z,10
2019-03-17T00:31:29.773Z,9
2019-03-17T00:41:32.902Z,10
2019-03-17T00:51:27.625Z,10
2019-03-17T01:01:27.280Z,10
2019-03-17T01:11:29.165Z,10
2019-03-17T01:21:32.698Z,10
2019-03-17T01:31:28.737Z,10
2019-03-17T01:41:27.649Z,10
2019-03-17T01:51:27.264Z,10
2019-03-17T02:01:27.960Z,10
2019-03-17T02:11:30.613Z,10
2019-03-17T02:21:27.633Z,10
2019-03-17T02:31:27.221Z,10
2019-03-17T02:41:28.115Z,10
2019-03-17T02:51:27.725Z,10
2019-03-17T03:01:27.590Z,10
2019-03-17T03:11:27.333Z,10
2019-03-17T03:21:27.143Z,11
2019-03-17T03:31:29.337Z,10
2019-03-17T03:41:27.925Z,10
2019-03-17T03:51:28.679Z,11
2019-03-17T04:01:27.590Z,11
2019-03-17T04:11:28.158Z,10
2019-03-17T04:21:27.173Z,11
2019-03-17T04:31:28.294Z,10
2019-03-17T04:41:26.944Z,10
2019-03-17T04:51:28.722Z,11
2019-03-17T05:01:27.562Z,10
2019-03-17T05:11:27.271Z,10
2019-03-17T05:21:28.819Z,10
2019-03-17T05:31:27.970Z,10
2019-03-17T05:41:27.624Z,11
2019-03-17T05:51:27.949Z,10
2019-03-17T06:01:28.569Z,11
2019-03-17T06:11:32.876Z,11
2019-03-17T06:21:27.928Z,11
2019-03-17T06:31:27.915Z,11
2019-03-17T06:41:28.869Z,11
2019-03-17T06:51:27.385Z,11
2019-03-17T07:01:27.607Z,12
2019-03-17T07:11:28.557Z,11
2019-03-17T07:21:28.235Z,12
2019-03-17T07:31:27.760Z,12
2019-03-17T07:41:28.110Z,12
2019-03-17T07:51:28.267Z,12
2019-03-17T08:01:29.652Z,13
2019-03-17T08:11:29.172Z,13
2019-03-17T08:21:27.079Z,13
2019-03-17T08:31:28.549Z,13
2019-03-17T08:41:27.234Z,13
2019-03-17T08:51:28.427Z,14
2019-03-17T09:01:27.527Z,14
2019-03-17T09:11:27.832Z,14
2019-03-17T09:21:28.866Z,15
2019-03-17T09:31:28.218Z,15
2019-03-17T09:41:27.456Z,15
2019-03-17T09:51:29.958Z,16
2019-03-17T10:01:26.965Z,16
2019-03-17T10:11:29.138Z,16
2019-03-17T10:21:27.322Z,16
2019-03-17T10:31:26.354Z,16
2019-03-17T10:41:28.216Z,17
2019-03-17T10:51:27.528Z,17
2019-03-17T11:01:27.899Z,17
2019-03-17T11:11:27.035Z,18
2019-03-17T11:21:28.680Z,18
2019-03-17T11:31:26.746Z,18
2019-03-17T11:41:27.548Z,18
2019-03-17T11:51:28.265Z,19
2019-03-17T12:01:47.166Z,19
2019-03-17T12:11:26.872Z,19
2019-03-17T12:21:28.969Z,19
2019-03-17T12:31:27.871Z,19
2019-03-17T12:41:26.648Z,19
2019-03-17T12:51:27.630Z,20
2019-03-17T13:01:26.383Z,20
2019-03-17T13:11:26.464Z,20
2019-03-17T13:21:26.600Z,20
2019-03-17T13:31:26.525Z,20
2019-03-17T13:41:26.215Z,20
2019-03-17T13:51:27.082Z,20
2019-03-17T14:01:26.919Z,20
2019-03-17T14:11:27.053Z,21
2019-03-17T14:21:27.430Z,21
2019-03-17T14:31:26.454Z,20
2019-03-17T14:41:26.941Z,21
2019-03-17T14:51:26.983Z,21
2019-03-17T15:01:26.830Z,21
2019-03-17T15:11:28.782Z,21
2019-03-17T15:21:27.038Z,21
2019-03-17T15:31:27.184Z,21
2019-03-17T15:41:27.935Z,22
2019-03-17T15:51:28.162Z,22
2019-03-17T16:01:27.037Z,22
2019-03-17T16:11:32.495Z,21
2019-03-17T16:21:26.805Z,21
2019-03-17T16:31:27.739Z,20
2019-03-17T16:41:26.532Z,20
2019-03-17T16:51:26.989Z,20
2019-03-17T17:01:26.805Z,20
2019-03-17T17:11:27.584Z,19
2019-03-17T17:21:27.389Z,18
2019-03-17T17:31:26.154Z,18
2019-03-17T17:41:27.012Z,18
2019-03-17T17:51:28.042Z,18
2019-03-17T18:01:27.027Z,18
2019-03-17T18:11:29.998Z,18
2019-03-17T18:21:28.090Z,17
2019-03-17T18:31:27.545Z,17
2019-03-17T18:41:29.428Z,17
2019-03-17T18:51:27.665Z,17
2019-03-17T19:01:27.474Z,17
2019-03-17T19:11:29.222Z,16
2019-03-17T19:21:26.109Z,16
2019-03-17T19:31:28.387Z,16
2019-03-17T19:41:26.390Z,16
2019-03-17T19:51:27.785Z,16
2019-03-17T20:01:27.890Z,16
2019-03-17T20:11:29.299Z,16
2019-03-17T20:21:28.231Z,16
2019-03-17T20:31:29.358Z,16
2019-03-17T20:41:27.108Z,16
2019-03-17T20:51:28.379Z,16
2019-03-17T21:01:26.435Z,15
2019-03-17T21:11:26.055Z,16
2019-03-17T21:21:27.964Z,15
2019-03-17T21:31:27.628Z,15
2019-03-17T21:41:27.997Z,15
2019-03-17T21:51:28.030Z,14
2019-03-17T22:01:27.681Z,14
2019-03-17T22:11:30.301Z,14
2019-03-17T22:21:27.123Z,14
2019-03-17T22:31:28.022Z,14
2019-03-17T22:41:28.002Z,14
2019-03-17T22:51:27.703Z,14
2019-03-17T23:01:28.128Z,14
2019-03-17T23:11:27.966Z,14
2019-03-17T23:21:28.094Z,14
2019-03-17T23:31:28.847Z,14
2019-03-17T23:41:28.414Z,14
2019-03-17T23:51:27.939Z,14
